Главная страница
METAR-TAF:

METAR-TAF

Аэропорты :

Антигуа, Антигуа и Барбуда

широта: 17-07N, долгота: 061-47W, высота над уровнем моря: 8 м

Текущие метеонаблюдения

Эта сводка был подготовлена 1 час и 16 минут назад, в 08:00 UTC
Ветер 8 Узел от восточный
Температура 25°C
Влажность 79%
Давление 1014 hPa
Видимость 10 км и более
Отдельные облака на высоте 1800 фута

METAR: TAPA 160800Z 10008KT 9999 SCT018 25/21 Q1014 NOSIG

Время: 05:16 (09:16 UTC)

Прогноз

Эта сводка был подготовлена 4 часа и 16 минут назад, в 05:00 UTC
Прогноз действительный с 16-го 06 UTC до 17-го 06 UTC
Ветер 13 Узел от восточный
Видимость 10 км и более
Отдельные облака на высоте 1800 фута
Вероятность 40% :
временами
С 16-го 06 UTC до 16-го 16 UTC
ливневые дожди

TAF: TAPA 160500Z 1606/1706 08013KT 9999 SCT018 PROB40 TEMPO 1606/1616 SHRA

Метеонаблюдения и прогнозы для более 4000 аэропортов (сводки METAR и TAF).

Имеющиеся станции представлены на карте желтыми и красными точками.

Чтобы увидеть название станции, наведите на нее мышь.

Затем щелкните, чтобы увидеть метеонаблюдения и метеопрогнозы.

Управление картой: чтобы увеличить масштаб, щелкните зеленые кнопки с черным крестиком; чтобы уменьшить масштаб, щелкните зеленую кнопку с тире; для просмотра соседних карт щелкайте зеленые стрелки.


METAR-TAF: